createdAt,value
2018-07-24T00:02:22.632Z,18.30
2018-07-24T00:04:51.137Z,18.30
2018-07-24T00:07:19.599Z,18.30
2018-07-24T00:09:48.166Z,18.40
2018-07-24T00:12:16.729Z,18.30
2018-07-24T00:14:45.157Z,18.40
2018-07-24T00:17:13.658Z,18.30
2018-07-24T00:19:42.194Z,18.30
2018-07-24T00:22:10.662Z,18.30
2018-07-24T00:24:39.181Z,18.30
2018-07-24T00:27:07.694Z,18.30
2018-07-24T00:32:04.430Z,18.20
2018-07-24T00:37:01.487Z,18.20
2018-07-24T00:39:29.982Z,18.20
2018-07-24T00:41:58.490Z,18.20
2018-07-24T00:46:55.181Z,18.10
2018-07-24T00:49:23.739Z,18.10
2018-07-24T00:51:52.209Z,18.10
2018-07-24T00:54:20.796Z,18.20
2018-07-24T00:56:49.306Z,18.20
2018-07-24T00:59:17.866Z,18.20
2018-07-24T01:01:46.399Z,18.10
2018-07-24T01:04:14.853Z,18.10
2018-07-24T01:06:43.429Z,18.10
2018-07-24T01:09:12.177Z,18.10
2018-07-24T01:11:41.085Z,18.10
2018-07-24T01:14:10.083Z,18.10
2018-07-24T01:21:34.953Z,18.10
2018-07-24T01:24:03.441Z,18.10
2018-07-24T01:26:31.925Z,18.10
2018-07-24T01:29:00.421Z,18.00
2018-07-24T01:31:28.890Z,18.00
2018-07-24T01:33:57.427Z,18.00
2018-07-24T01:38:54.082Z,18.00
2018-07-24T01:41:22.563Z,18.00
2018-07-24T01:46:19.228Z,18.00
2018-07-24T01:48:47.710Z,18.00
2018-07-24T01:51:16.262Z,18.00
2018-07-24T01:53:44.749Z,18.00
2018-07-24T01:56:13.215Z,18.00
2018-07-24T01:58:41.694Z,18.00
2018-07-24T02:01:10.222Z,17.90
2018-07-24T02:03:38.701Z,17.90
2018-07-24T02:06:07.202Z,17.90
2018-07-24T02:08:35.690Z,17.90
2018-07-24T02:11:04.162Z,17.90
2018-07-24T02:13:32.900Z,17.90
2018-07-24T02:16:01.435Z,17.90
2018-07-24T02:18:29.899Z,17.90
2018-07-24T02:20:58.401Z,17.90
2018-07-24T02:23:26.898Z,17.80
2018-07-24T02:25:55.418Z,17.80
2018-07-24T02:28:23.904Z,17.70
2018-07-24T02:33:20.564Z,17.70
2018-07-24T02:35:49.270Z,17.70
2018-07-24T02:38:17.835Z,17.70
2018-07-24T02:40:46.327Z,17.70
2018-07-24T02:43:14.863Z,17.70
2018-07-24T02:45:43.414Z,17.70
2018-07-24T02:48:11.890Z,17.70
2018-07-24T02:50:40.391Z,17.70
2018-07-24T02:53:08.858Z,17.70
2018-07-24T02:55:37.371Z,17.70
2018-07-24T02:58:06.206Z,17.70
2018-07-24T03:00:34.743Z,17.70
2018-07-24T03:03:03.274Z,17.60
2018-07-24T03:05:31.903Z,17.60
2018-07-24T03:08:00.347Z,17.60
2018-07-24T03:10:28.837Z,17.60
2018-07-24T03:12:57.277Z,17.60
2018-07-24T03:15:25.764Z,17.60
2018-07-24T03:17:54.490Z,17.60
2018-07-24T03:20:23.015Z,17.60
2018-07-24T03:22:51.474Z,17.60
2018-07-24T03:25:19.976Z,17.60
2018-07-24T03:27:48.447Z,17.60
2018-07-24T03:30:17.015Z,17.50
2018-07-24T03:32:45.432Z,17.50
2018-07-24T03:35:13.877Z,17.50
2018-07-24T03:40:10.519Z,17.40
2018-07-24T03:42:38.945Z,17.40
2018-07-24T03:45:07.473Z,17.30
2018-07-24T03:47:35.906Z,17.30
2018-07-24T03:50:04.646Z,17.30
2018-07-24T03:52:33.114Z,17.30
2018-07-24T03:55:01.849Z,17.30
2018-07-24T03:57:30.296Z,17.30
2018-07-24T03:59:58.805Z,17.30
2018-07-24T04:02:27.330Z,17.30
2018-07-24T04:04:55.747Z,17.40
2018-07-24T04:07:24.222Z,17.50
2018-07-24T04:09:52.701Z,17.50
2018-07-24T04:12:21.141Z,17.50
2018-07-24T04:14:49.634Z,17.50
2018-07-24T04:17:18.095Z,17.50
2018-07-24T04:19:46.549Z,17.50
2018-07-24T04:22:15.606Z,17.50
2018-07-24T04:24:44.141Z,17.50
2018-07-24T04:27:12.654Z,17.50
2018-07-24T04:29:41.341Z,17.60
2018-07-24T04:32:09.838Z,17.70
2018-07-24T04:34:38.292Z,17.80
2018-07-24T04:37:06.770Z,18.30
2018-07-24T04:39:35.231Z,19.00
2018-07-24T04:42:03.705Z,19.80
2018-07-24T04:44:32.209Z,20.50
2018-07-24T04:47:00.661Z,21.10
2018-07-24T04:49:29.125Z,21.90
2018-07-24T04:51:57.641Z,22.80
2018-07-24T04:54:26.091Z,23.30
2018-07-24T04:56:54.554Z,23.60
2018-07-24T04:59:23.077Z,23.90
2018-07-24T05:01:51.565Z,24.10
2018-07-24T05:04:20.816Z,24.30
2018-07-24T05:06:49.281Z,24.10
2018-07-24T05:09:17.717Z,24.00
2018-07-24T05:11:46.185Z,23.90
2018-07-24T05:14:14.712Z,24.00
2018-07-24T05:16:43.532Z,24.10
2018-07-24T05:19:11.978Z,24.20
2018-07-24T05:21:40.445Z,24.40
2018-07-24T05:26:37.045Z,24.70
2018-07-24T05:29:05.586Z,25.10
2018-07-24T05:31:34.053Z,25.00
2018-07-24T05:34:02.526Z,25.30
2018-07-24T05:36:31.007Z,25.50
2018-07-24T05:38:59.445Z,25.80
2018-07-24T05:41:27.915Z,26.10
2018-07-24T05:43:56.745Z,26.50
2018-07-24T05:46:25.203Z,27.10
2018-07-24T05:48:53.729Z,27.40
2018-07-24T05:51:22.152Z,27.80
2018-07-24T05:53:50.642Z,28.10
2018-07-24T05:56:19.115Z,28.40
2018-07-24T05:58:47.606Z,28.70
2018-07-24T06:01:16.077Z,28.90
2018-07-24T06:03:44.572Z,29.40
2018-07-24T06:06:13.055Z,29.90
2018-07-24T06:08:41.711Z,30.40
2018-07-24T06:13:38.921Z,30.20
2018-07-24T06:16:07.393Z,30.90
2018-07-24T06:18:35.853Z,31.10
2018-07-24T06:23:32.669Z,31.70
2018-07-24T06:26:01.698Z,31.80
2018-07-24T06:30:58.600Z,31.70
2018-07-24T06:33:27.094Z,31.10
2018-07-24T06:35:55.534Z,30.00
2018-07-24T06:40:52.222Z,27.80
2018-07-24T06:43:20.674Z,26.80
2018-07-24T06:48:17.303Z,25.50
2018-07-24T06:50:45.764Z,25.00
2018-07-24T06:53:14.253Z,24.50
2018-07-24T06:55:42.719Z,24.00
2018-07-24T06:58:11.185Z,24.00
2018-07-24T07:00:40.117Z,24.10
2018-07-24T07:03:09.252Z,24.00
2018-07-24T07:05:37.755Z,24.10
2018-07-24T07:08:06.277Z,24.00
2018-07-24T07:10:34.804Z,23.90
2018-07-24T07:13:03.619Z,24.00
2018-07-24T07:15:32.017Z,23.80
2018-07-24T07:18:00.483Z,23.60
2018-07-24T07:20:29.150Z,23.30
2018-07-24T07:22:57.654Z,22.90
2018-07-24T07:25:26.125Z,23.10
2018-07-24T07:30:22.735Z,23.20
2018-07-24T07:32:51.191Z,23.10
2018-07-24T07:35:19.637Z,23.20
2018-07-24T07:37:48.063Z,23.40
2018-07-24T07:40:16.502Z,23.50
2018-07-24T07:42:44.966Z,23.50
2018-07-24T07:45:13.436Z,23.60
2018-07-24T07:47:41.875Z,23.70
2018-07-24T07:50:10.365Z,23.60
2018-07-24T07:52:38.843Z,23.60
2018-07-24T07:55:07.330Z,23.60
2018-07-24T07:57:35.793Z,23.60
2018-07-24T08:00:04.557Z,23.60
2018-07-24T08:02:33.022Z,23.60
2018-07-24T08:05:01.698Z,23.60
2018-07-24T08:07:30.166Z,23.80
2018-07-24T08:09:58.792Z,23.80
2018-07-24T08:12:27.317Z,24.00
2018-07-24T08:14:55.810Z,24.10
2018-07-24T08:17:24.280Z,24.20
2018-07-24T08:19:52.973Z,24.30
2018-07-24T08:22:21.458Z,24.30
2018-07-24T08:24:49.848Z,24.30
2018-07-24T08:27:18.287Z,24.40
2018-07-24T08:29:46.753Z,24.60
2018-07-24T08:32:15.190Z,24.60
2018-07-24T08:34:43.741Z,24.60
2018-07-24T08:37:12.220Z,24.70
2018-07-24T08:39:40.659Z,24.70
2018-07-24T08:42:09.097Z,24.70
2018-07-24T08:44:37.596Z,24.70
2018-07-24T08:47:06.057Z,24.70
2018-07-24T08:49:34.508Z,24.60
2018-07-24T08:52:02.948Z,24.30
2018-07-24T08:54:31.655Z,24.20
2018-07-24T08:57:00.452Z,24.30
2018-07-24T08:59:28.894Z,24.40
2018-07-24T09:01:57.346Z,24.40
2018-07-24T09:04:25.974Z,24.40
2018-07-24T09:06:54.401Z,24.60
2018-07-24T09:09:22.865Z,24.70
2018-07-24T09:14:19.572Z,24.80
2018-07-24T09:16:47.999Z,24.90
2018-07-24T09:19:16.698Z,25.00
2018-07-24T09:21:45.124Z,25.00
2018-07-24T09:24:13.566Z,25.00
2018-07-24T09:26:42.018Z,25.10
2018-07-24T09:29:10.498Z,25.10
2018-07-24T09:31:38.929Z,25.10
2018-07-24T09:34:07.430Z,25.10
2018-07-24T09:36:35.881Z,25.20
2018-07-24T09:39:06.769Z,25.20
2018-07-24T09:41:35.211Z,25.20
2018-07-24T09:44:03.770Z,25.30
2018-07-24T09:46:32.222Z,25.20
2018-07-24T09:49:00.702Z,25.20
2018-07-24T09:51:29.389Z,25.20
2018-07-24T09:53:57.843Z,25.10
2018-07-24T09:56:26.311Z,24.90
2018-07-24T09:58:54.782Z,25.00
2018-07-24T10:01:29.697Z,25.20
2018-07-24T10:03:58.265Z,25.40
2018-07-24T10:06:26.736Z,25.40
2018-07-24T10:08:55.218Z,25.50
2018-07-24T10:11:23.701Z,25.40
2018-07-24T10:13:52.145Z,25.40
2018-07-24T10:16:20.616Z,25.50
2018-07-24T10:18:49.115Z,25.60
2018-07-24T10:21:17.534Z,25.60
2018-07-24T10:23:46.215Z,25.70
2018-07-24T10:26:14.922Z,25.60
2018-07-24T10:28:43.377Z,25.60
2018-07-24T10:31:11.854Z,25.60
2018-07-24T10:33:40.298Z,25.80
2018-07-24T10:36:08.758Z,25.90
2018-07-24T10:38:37.198Z,25.80
2018-07-24T10:41:05.702Z,25.70
2018-07-24T10:43:34.501Z,25.70
2018-07-24T10:46:02.998Z,25.80
2018-07-24T10:48:31.438Z,25.90
2018-07-24T10:50:59.892Z,25.90
2018-07-24T10:53:28.549Z,26.00
2018-07-24T10:58:25.922Z,25.80
2018-07-24T11:00:54.424Z,25.90
2018-07-24T11:03:22.862Z,26.10
2018-07-24T11:05:51.325Z,26.10
2018-07-24T11:08:19.777Z,26.10
2018-07-24T11:10:48.285Z,26.20
2018-07-24T11:13:16.731Z,26.00
2018-07-24T11:15:45.205Z,25.90
2018-07-24T11:18:13.945Z,25.90
2018-07-24T11:20:42.414Z,26.00
2018-07-24T11:23:11.165Z,26.10
2018-07-24T11:25:39.541Z,26.30
2018-07-24T11:28:07.982Z,26.50
2018-07-24T11:30:36.457Z,26.60
2018-07-24T11:35:40.879Z,26.70
2018-07-24T11:40:40.860Z,26.80
2018-07-24T11:43:09.522Z,26.90
2018-07-24T11:45:37.988Z,26.80
2018-07-24T11:48:06.910Z,26.90
2018-07-24T11:50:35.740Z,27.00
2018-07-24T11:53:04.174Z,27.10
2018-07-24T11:55:32.605Z,26.90
2018-07-24T11:58:01.094Z,26.70
2018-07-24T12:00:29.576Z,26.60
2018-07-24T12:02:58.045Z,26.50
2018-07-24T12:05:26.541Z,26.40
2018-07-24T12:07:55.030Z,26.40
2018-07-24T12:10:23.433Z,26.60
2018-07-24T12:12:51.907Z,26.70
2018-07-24T12:15:20.361Z,26.90
2018-07-24T12:17:48.917Z,27.00
2018-07-24T12:22:45.474Z,27.40
2018-07-24T12:25:14.146Z,27.40
2018-07-24T12:27:42.606Z,27.50
2018-07-24T12:30:11.071Z,27.50
2018-07-24T12:32:39.769Z,27.50
2018-07-24T12:35:08.237Z,27.50
2018-07-24T12:37:36.706Z,27.70
2018-07-24T12:40:05.488Z,27.80
2018-07-24T12:42:33.929Z,27.70
2018-07-24T12:45:02.347Z,27.70
2018-07-24T12:47:30.818Z,27.70
2018-07-24T12:49:59.325Z,27.80
2018-07-24T12:57:24.071Z,28.10
2018-07-24T12:59:52.908Z,28.30
2018-07-24T13:07:17.639Z,28.60
2018-07-24T13:09:46.064Z,28.70
2018-07-24T13:12:14.520Z,28.60
2018-07-24T13:14:42.962Z,28.70
2018-07-24T13:17:11.426Z,28.70
2018-07-24T13:19:40.111Z,28.70
2018-07-24T13:22:08.568Z,28.80
2018-07-24T13:24:37.044Z,28.80
2018-07-24T13:27:05.489Z,28.70
2018-07-24T13:29:33.942Z,28.70
2018-07-24T13:32:02.401Z,28.70
2018-07-24T13:34:30.862Z,28.80
2018-07-24T13:36:59.310Z,28.90
2018-07-24T13:39:27.826Z,28.70
2018-07-24T13:41:56.261Z,28.70
2018-07-24T13:44:24.697Z,28.90
2018-07-24T13:46:53.293Z,29.00
2018-07-24T13:49:21.809Z,28.90
2018-07-24T13:51:50.225Z,28.90
2018-07-24T13:54:18.729Z,29.00
2018-07-24T13:56:47.177Z,29.10
2018-07-24T14:01:43.793Z,29.10
2018-07-24T14:04:12.292Z,29.00
2018-07-24T14:06:40.783Z,28.90
2018-07-24T14:09:11.164Z,28.90
2018-07-24T14:11:39.986Z,28.70
2018-07-24T14:14:08.812Z,28.90
2018-07-24T14:16:37.268Z,28.90
2018-07-24T14:19:05.696Z,29.10
2018-07-24T14:21:34.195Z,29.20
2018-07-24T14:24:02.914Z,29.10
2018-07-24T14:26:31.365Z,29.10
2018-07-24T14:29:00.589Z,29.10
2018-07-24T14:31:29.046Z,29.00
2018-07-24T14:33:57.714Z,29.00
2018-07-24T14:36:26.146Z,29.10
2018-07-24T14:38:54.887Z,29.20
2018-07-24T14:41:23.855Z,29.10
2018-07-24T14:43:53.155Z,29.00
2018-07-24T14:46:22.319Z,29.10
2018-07-24T14:48:51.388Z,29.00
2018-07-24T14:51:20.213Z,28.90
2018-07-24T14:53:49.606Z,28.90
2018-07-24T14:56:18.779Z,29.20
2018-07-24T14:58:47.308Z,29.20
2018-07-24T15:01:18.347Z,29.30
2018-07-24T15:06:15.870Z,29.20
2018-07-24T15:08:46.599Z,29.20
2018-07-24T15:11:15.281Z,29.40
2018-07-24T15:13:43.728Z,29.50
2018-07-24T15:16:12.875Z,29.50
2018-07-24T15:18:41.844Z,29.30
2018-07-24T15:21:11.216Z,29.30
2018-07-24T15:26:08.066Z,29.30
2018-07-24T15:28:36.525Z,29.30
2018-07-24T15:31:04.957Z,29.30
2018-07-24T15:33:33.433Z,29.20
2018-07-24T15:36:01.869Z,28.90
2018-07-24T15:38:30.388Z,28.80
2018-07-24T15:40:58.845Z,28.60
2018-07-24T15:43:27.310Z,28.60
2018-07-24T15:45:55.810Z,28.50
2018-07-24T15:48:24.294Z,28.50
2018-07-24T15:50:53.003Z,28.60
2018-07-24T15:53:21.489Z,28.60
2018-07-24T15:55:49.958Z,28.70
2018-07-24T15:58:18.513Z,28.80
2018-07-24T16:00:47.062Z,28.80
2018-07-24T16:03:15.538Z,28.80
2018-07-24T16:05:43.993Z,28.80
2018-07-24T16:08:12.431Z,28.70
2018-07-24T16:10:40.953Z,28.60
2018-07-24T16:13:09.463Z,28.50
2018-07-24T16:15:37.967Z,28.40
2018-07-24T16:18:06.398Z,28.60
2018-07-24T16:20:34.860Z,28.60
2018-07-24T16:23:03.985Z,28.60
2018-07-24T16:25:32.490Z,28.60
2018-07-24T16:30:29.093Z,28.60
2018-07-24T16:32:57.556Z,28.50
2018-07-24T16:35:26.090Z,28.30
2018-07-24T16:37:54.528Z,28.20
2018-07-24T16:40:23.026Z,28.20
2018-07-24T16:42:51.477Z,28.20
2018-07-24T16:45:19.939Z,28.00
2018-07-24T16:47:48.350Z,28.00
2018-07-24T16:50:16.829Z,28.00
2018-07-24T16:52:45.274Z,27.90
2018-07-24T16:55:13.760Z,27.90
2018-07-24T17:00:10.348Z,27.90
2018-07-24T17:02:38.881Z,27.90
2018-07-24T17:05:07.580Z,27.90
2018-07-24T17:07:35.985Z,27.90
2018-07-24T17:10:04.568Z,27.90
2018-07-24T17:12:32.995Z,27.80
2018-07-24T17:15:01.416Z,27.80
2018-07-24T17:17:29.846Z,27.80
2018-07-24T17:19:58.341Z,27.80
2018-07-24T17:22:26.803Z,27.80
2018-07-24T17:24:55.342Z,27.80
2018-07-24T17:29:52.006Z,27.70
2018-07-24T17:34:48.633Z,27.60
2018-07-24T17:37:17.118Z,27.50
2018-07-24T17:39:45.628Z,27.50
2018-07-24T17:42:14.099Z,27.40
2018-07-24T17:44:42.608Z,27.40
2018-07-24T17:47:11.061Z,27.40
2018-07-24T17:52:07.670Z,27.30
2018-07-24T17:54:36.181Z,27.20
2018-07-24T17:57:04.654Z,27.10
2018-07-24T17:59:33.102Z,27.00
2018-07-24T18:02:01.580Z,26.90
2018-07-24T18:04:30.035Z,26.70
2018-07-24T18:06:58.494Z,26.60
2018-07-24T18:09:26.929Z,26.50
2018-07-24T18:11:55.386Z,26.50
2018-07-24T18:14:23.796Z,26.40
2018-07-24T18:16:52.232Z,26.30
2018-07-24T18:21:50.739Z,26.10
2018-07-24T18:24:19.446Z,26.10
2018-07-24T18:26:48.345Z,25.90
2018-07-24T18:29:16.804Z,25.80
2018-07-24T18:34:48.093Z,25.60
2018-07-24T18:40:19.520Z,25.30
2018-07-24T18:42:48.326Z,25.20
2018-07-24T18:45:26.944Z,25.00
2018-07-24T18:47:56.007Z,24.90
2018-07-24T18:50:25.317Z,24.70
2018-07-24T18:53:06.258Z,24.60
2018-07-24T18:55:43.414Z,24.50
2018-07-24T18:58:34.224Z,24.40
2018-07-24T19:01:03.056Z,24.30
2018-07-24T19:03:31.872Z,24.00
2018-07-24T19:06:00.841Z,23.90
2018-07-24T19:08:34.587Z,23.80
2018-07-24T19:13:31.676Z,23.50
2018-07-24T19:16:00.126Z,23.40
2018-07-24T19:18:38.699Z,23.30
2018-07-24T19:21:07.141Z,23.20
2018-07-24T19:23:35.569Z,23.10
2018-07-24T19:26:04.068Z,23.00
2018-07-24T19:28:32.506Z,23.00
2018-07-24T19:31:01.068Z,23.00
2018-07-24T19:33:29.947Z,22.90
2018-07-24T19:35:58.515Z,22.80
2018-07-24T19:38:26.952Z,22.70
2018-07-24T19:40:55.397Z,22.70
2018-07-24T19:43:23.965Z,22.60
2018-07-24T19:45:52.425Z,22.50
2018-07-24T19:48:20.887Z,22.50
2018-07-24T19:50:49.322Z,22.50
2018-07-24T19:53:17.761Z,22.50
2018-07-24T19:55:46.192Z,22.40
2018-07-24T19:58:14.660Z,22.40
2018-07-24T20:00:43.104Z,22.40
2018-07-24T20:03:11.590Z,22.40
2018-07-24T20:05:40.098Z,22.40
2018-07-24T20:08:08.578Z,22.40
2018-07-24T20:10:37.366Z,22.40
2018-07-24T20:13:05.861Z,22.30
2018-07-24T20:15:34.335Z,22.30
2018-07-24T20:18:02.814Z,22.20
2018-07-24T20:20:31.271Z,22.20
2018-07-24T20:22:59.925Z,22.10
2018-07-24T20:25:28.241Z,22.00
2018-07-24T20:33:01.444Z,21.80
2018-07-24T20:35:31.757Z,21.70
2018-07-24T20:38:00.865Z,21.70
2018-07-24T20:40:30.144Z,21.70
2018-07-24T20:42:59.217Z,21.60
2018-07-24T20:45:33.130Z,21.60
2018-07-24T20:48:01.827Z,21.60
2018-07-24T20:50:30.578Z,21.50
2018-07-24T20:52:59.369Z,21.50
2018-07-24T20:55:28.223Z,21.40
2018-07-24T20:57:57.062Z,21.40
2018-07-24T21:00:26.725Z,21.40
2018-07-24T21:02:55.614Z,21.30
2018-07-24T21:05:24.648Z,21.30
2018-07-24T21:07:54.216Z,21.30
2018-07-24T21:10:23.998Z,21.30
2018-07-24T21:12:53.147Z,21.30
2018-07-24T21:17:51.075Z,21.20
2018-07-24T21:20:20.133Z,21.10
2018-07-24T21:22:48.998Z,21.10
2018-07-24T21:25:18.081Z,21.10
2018-07-24T21:27:46.687Z,21.10
2018-07-24T21:30:15.778Z,21.00
2018-07-24T21:32:44.655Z,21.00
2018-07-24T21:35:13.601Z,21.00
2018-07-24T21:37:42.623Z,21.00
2018-07-24T21:40:11.246Z,20.90
2018-07-24T21:42:40.244Z,20.90
2018-07-24T21:47:37.320Z,20.80
2018-07-24T21:50:06.375Z,20.80
2018-07-24T21:52:35.330Z,20.80
2018-07-24T21:55:04.153Z,20.70
2018-07-24T21:57:33.317Z,20.70
2018-07-24T22:00:02.160Z,20.70
2018-07-24T22:02:31.003Z,20.60
2018-07-24T22:04:59.808Z,20.50
2018-07-24T22:07:28.685Z,20.50
2018-07-24T22:09:57.479Z,20.50
2018-07-24T22:12:26.342Z,20.50
2018-07-24T22:14:54.930Z,20.40
2018-07-24T22:17:23.824Z,20.40
2018-07-24T22:19:52.660Z,20.40
2018-07-24T22:24:49.296Z,20.40
2018-07-24T22:27:17.749Z,20.30
2018-07-24T22:29:46.295Z,20.30
2018-07-24T22:32:14.738Z,20.30
2018-07-24T22:34:43.192Z,20.30
2018-07-24T22:37:11.757Z,20.30
2018-07-24T22:39:41.262Z,20.20
2018-07-24T22:42:09.689Z,20.20
2018-07-24T22:44:38.125Z,20.20
2018-07-24T22:47:06.557Z,20.20
2018-07-24T22:49:35.297Z,20.20
2018-07-24T22:52:03.866Z,20.20
2018-07-24T22:57:00.418Z,20.20
2018-07-24T23:01:57.306Z,20.10
2018-07-24T23:04:25.763Z,20.20
2018-07-24T23:06:54.217Z,20.10
2018-07-24T23:09:22.641Z,20.20
2018-07-24T23:11:51.082Z,20.10
2018-07-24T23:14:19.512Z,20.20
2018-07-24T23:16:47.957Z,20.20
2018-07-24T23:19:16.404Z,20.20
2018-07-24T23:21:44.881Z,20.20
2018-07-24T23:24:13.332Z,20.20
2018-07-24T23:26:42.018Z,20.10
2018-07-24T23:29:10.471Z,20.10
2018-07-24T23:31:38.957Z,20.10
2018-07-24T23:34:07.676Z,20.00
2018-07-24T23:36:36.153Z,20.10
2018-07-24T23:39:07.148Z,20.00
2018-07-24T23:41:35.604Z,20.10
2018-07-24T23:44:04.115Z,20.10
2018-07-24T23:46:32.587Z,20.10
2018-07-24T23:49:01.054Z,20.10
2018-07-24T23:51:29.790Z,20.10
2018-07-24T23:56:26.379Z,20.10
2018-07-24T23:58:54.877Z,20.10
